sensor_id;sensor_type;location;lat;lon;timestamp;P1;durP1;ratioP1;P2;durP2;ratioP2
11951;SDS011;6036;41.840;23.486;2022-09-09T00:04:27;7.15;;;2.95;;
11951;SDS011;6036;41.840;23.486;2022-09-09T00:07:03;3.88;;;3.13;;
11951;SDS011;6036;41.840;23.486;2022-09-09T00:09:30;6.32;;;3.17;;
11951;SDS011;6036;41.840;23.486;2022-09-09T00:12:11;5.97;;;2.90;;
11951;SDS011;6036;41.840;23.486;2022-09-09T00:14:51;7.05;;;3.05;;
11951;SDS011;6036;41.840;23.486;2022-09-09T00:22:27;6.90;;;3.03;;
11951;SDS011;6036;41.840;23.486;2022-09-09T00:24:56;5.10;;;2.70;;
11951;SDS011;6036;41.840;23.486;2022-09-09T00:27:48;6.47;;;2.80;;
11951;SDS011;6036;41.840;23.486;2022-09-09T00:30:22;3.50;;;2.97;;
11951;SDS011;6036;41.840;23.486;2022-09-09T00:32:54;3.78;;;2.45;;
11951;SDS011;6036;41.840;23.486;2022-09-09T00:38:21;6.93;;;2.47;;
11951;SDS011;6036;41.840;23.486;2022-09-09T00:41:14;8.68;;;2.67;;
11951;SDS011;6036;41.840;23.486;2022-09-09T00:44:43;4.82;;;2.78;;
11951;SDS011;6036;41.840;23.486;2022-09-09T00:49:42;9.25;;;2.70;;
11951;SDS011;6036;41.840;23.486;2022-09-09T00:52:39;10.77;;;3.47;;
11951;SDS011;6036;41.840;23.486;2022-09-09T00:57:58;9.27;;;3.72;;
11951;SDS011;6036;41.840;23.486;2022-09-09T01:00:27;6.05;;;4.70;;
11951;SDS011;6036;41.840;23.486;2022-09-09T01:05:37;4.40;;;2.75;;
11951;SDS011;6036;41.840;23.486;2022-09-09T01:08:34;9.73;;;2.92;;
11951;SDS011;6036;41.840;23.486;2022-09-09T01:11:24;4.00;;;2.70;;
11951;SDS011;6036;41.840;23.486;2022-09-09T01:14:54;3.90;;;2.78;;
11951;SDS011;6036;41.840;23.486;2022-09-09T01:17:09;9.98;;;3.35;;
11951;SDS011;6036;41.840;23.486;2022-09-09T01:28:25;6.55;;;2.80;;
11951;SDS011;6036;41.840;23.486;2022-09-09T01:30:53;4.43;;;3.22;;
11951;SDS011;6036;41.840;23.486;2022-09-09T01:33:21;5.88;;;3.33;;
11951;SDS011;6036;41.840;23.486;2022-09-09T01:38:29;6.20;;;3.03;;
11951;SDS011;6036;41.840;23.486;2022-09-09T01:40:56;6.50;;;3.53;;
11951;SDS011;6036;41.840;23.486;2022-09-09T01:43:23;7.25;;;3.22;;
11951;SDS011;6036;41.840;23.486;2022-09-09T01:45:54;5.15;;;2.58;;
11951;SDS011;6036;41.840;23.486;2022-09-09T01:48:23;5.47;;;2.92;;
11951;SDS011;6036;41.840;23.486;2022-09-09T01:50:50;4.38;;;2.65;;
11951;SDS011;6036;41.840;23.486;2022-09-09T01:53:17;7.63;;;2.90;;
11951;SDS011;6036;41.840;23.486;2022-09-09T02:06:47;5.25;;;2.40;;
11951;SDS011;6036;41.840;23.486;2022-09-09T02:09:15;6.95;;;3.67;;
11951;SDS011;6036;41.840;23.486;2022-09-09T02:11:44;6.03;;;3.17;;
11951;SDS011;6036;41.840;23.486;2022-09-09T02:14:14;5.13;;;2.88;;
11951;SDS011;6036;41.840;23.486;2022-09-09T02:20:16;6.80;;;3.47;;
11951;SDS011;6036;41.840;23.486;2022-09-09T02:22:43;8.05;;;3.38;;
11951;SDS011;6036;41.840;23.486;2022-09-09T02:25:12;7.32;;;2.92;;
11951;SDS011;6036;41.840;23.486;2022-09-09T02:27:40;5.80;;;3.17;;
11951;SDS011;6036;41.840;23.486;2022-09-09T02:30:10;12.98;;;5.32;;
11951;SDS011;6036;41.840;23.486;2022-09-09T02:32:36;11.43;;;6.20;;
11951;SDS011;6036;41.840;23.486;2022-09-09T02:35:06;22.85;;;8.43;;
11951;SDS011;6036;41.840;23.486;2022-09-09T02:37:37;12.88;;;6.68;;
11951;SDS011;6036;41.840;23.486;2022-09-09T02:40:04;15.15;;;6.45;;
11951;SDS011;6036;41.840;23.486;2022-09-09T02:42:32;8.00;;;5.10;;
11951;SDS011;6036;41.840;23.486;2022-09-09T02:45:04;9.00;;;5.38;;
11951;SDS011;6036;41.840;23.486;2022-09-09T02:50:34;7.97;;;3.58;;
11951;SDS011;6036;41.840;23.486;2022-09-09T02:55:50;5.30;;;3.25;;
11951;SDS011;6036;41.840;23.486;2022-09-09T02:58:24;8.20;;;3.65;;
11951;SDS011;6036;41.840;23.486;2022-09-09T03:00:51;5.20;;;2.92;;
11951;SDS011;6036;41.840;23.486;2022-09-09T03:03:18;5.03;;;3.20;;
11951;SDS011;6036;41.840;23.486;2022-09-09T03:05:44;8.23;;;3.70;;
11951;SDS011;6036;41.840;23.486;2022-09-09T03:08:10;6.03;;;2.92;;
11951;SDS011;6036;41.840;23.486;2022-09-09T03:10:38;6.82;;;3.88;;
11951;SDS011;6036;41.840;23.486;2022-09-09T03:13:03;6.75;;;3.30;;
11951;SDS011;6036;41.840;23.486;2022-09-09T03:15:32;5.25;;;3.72;;
11951;SDS011;6036;41.840;23.486;2022-09-09T03:17:58;4.55;;;3.40;;
11951;SDS011;6036;41.840;23.486;2022-09-09T03:20:25;10.43;;;3.90;;
11951;SDS011;6036;41.840;23.486;2022-09-09T03:22:52;7.63;;;3.33;;
11951;SDS011;6036;41.840;23.486;2022-09-09T03:25:18;7.13;;;3.97;;
11951;SDS011;6036;41.840;23.486;2022-09-09T03:27:44;9.93;;;3.78;;
11951;SDS011;6036;41.840;23.486;2022-09-09T03:30:09;6.38;;;3.60;;
11951;SDS011;6036;41.840;23.486;2022-09-09T03:32:35;5.22;;;3.53;;
11951;SDS011;6036;41.840;23.486;2022-09-09T03:35:01;7.40;;;4.25;;
11951;SDS011;6036;41.840;23.486;2022-09-09T03:37:27;7.47;;;3.80;;
11951;SDS011;6036;41.840;23.486;2022-09-09T03:39:52;7.10;;;3.83;;
11951;SDS011;6036;41.840;23.486;2022-09-09T03:42:19;5.22;;;3.25;;
11951;SDS011;6036;41.840;23.486;2022-09-09T03:44:45;6.43;;;3.22;;
11951;SDS011;6036;41.840;23.486;2022-09-09T03:47:18;6.88;;;3.58;;
11951;SDS011;6036;41.840;23.486;2022-09-09T03:49:46;5.88;;;3.15;;
11951;SDS011;6036;41.840;23.486;2022-09-09T03:52:13;5.35;;;3.47;;
11951;SDS011;6036;41.840;23.486;2022-09-09T03:54:39;8.75;;;3.67;;
11951;SDS011;6036;41.840;23.486;2022-09-09T03:57:06;9.00;;;3.13;;
11951;SDS011;6036;41.840;23.486;2022-09-09T03:59:31;6.25;;;3.65;;
11951;SDS011;6036;41.840;23.486;2022-09-09T04:01:57;9.38;;;4.00;;
11951;SDS011;6036;41.840;23.486;2022-09-09T04:04:24;4.32;;;3.53;;
11951;SDS011;6036;41.840;23.486;2022-09-09T04:06:49;6.75;;;3.70;;
11951;SDS011;6036;41.840;23.486;2022-09-09T04:09:15;8.35;;;3.17;;
11951;SDS011;6036;41.840;23.486;2022-09-09T04:11:41;6.13;;;3.10;;
11951;SDS011;6036;41.840;23.486;2022-09-09T04:14:06;5.53;;;3.00;;
11951;SDS011;6036;41.840;23.486;2022-09-09T04:16:32;5.78;;;3.72;;
11951;SDS011;6036;41.840;23.486;2022-09-09T04:18:58;7.75;;;4.13;;
11951;SDS011;6036;41.840;23.486;2022-09-09T04:21:25;5.20;;;3.50;;
11951;SDS011;6036;41.840;23.486;2022-09-09T04:23:51;4.57;;;3.70;;
11951;SDS011;6036;41.840;23.486;2022-09-09T04:26:16;9.00;;;4.60;;
11951;SDS011;6036;41.840;23.486;2022-09-09T04:28:42;6.95;;;3.70;;
11951;SDS011;6036;41.840;23.486;2022-09-09T04:31:09;7.13;;;4.18;;
11951;SDS011;6036;41.840;23.486;2022-09-09T04:33:39;5.03;;;4.00;;
11951;SDS011;6036;41.840;23.486;2022-09-09T04:36:05;6.32;;;4.00;;
11951;SDS011;6036;41.840;23.486;2022-09-09T04:38:31;8.75;;;4.45;;
11951;SDS011;6036;41.840;23.486;2022-09-09T04:40:56;12.80;;;6.38;;
11951;SDS011;6036;41.840;23.486;2022-09-09T04:43:22;16.25;;;9.35;;
11951;SDS011;6036;41.840;23.486;2022-09-09T04:45:51;21.25;;;7.50;;
11951;SDS011;6036;41.840;23.486;2022-09-09T04:48:17;10.65;;;6.97;;
11951;SDS011;6036;41.840;23.486;2022-09-09T04:50:43;14.88;;;6.38;;
11951;SDS011;6036;41.840;23.486;2022-09-09T04:53:08;10.48;;;6.38;;
11951;SDS011;6036;41.840;23.486;2022-09-09T04:55:34;10.82;;;6.47;;
11951;SDS011;6036;41.840;23.486;2022-09-09T04:58:04;9.38;;;5.88;;
11951;SDS011;6036;41.840;23.486;2022-09-09T05:00:30;14.52;;;5.20;;
11951;SDS011;6036;41.840;23.486;2022-09-09T05:02:56;8.70;;;4.72;;
11951;SDS011;6036;41.840;23.486;2022-09-09T05:05:22;6.88;;;4.43;;
11951;SDS011;6036;41.840;23.486;2022-09-09T05:07:47;8.63;;;4.40;;
11951;SDS011;6036;41.840;23.486;2022-09-09T05:10:13;7.82;;;5.05;;
11951;SDS011;6036;41.840;23.486;2022-09-09T05:12:40;13.13;;;4.68;;
11951;SDS011;6036;41.840;23.486;2022-09-09T05:15:05;8.73;;;6.50;;
11951;SDS011;6036;41.840;23.486;2022-09-09T05:17:32;13.50;;;8.20;;
11951;SDS011;6036;41.840;23.486;2022-09-09T05:19:58;15.00;;;9.23;;
11951;SDS011;6036;41.840;23.486;2022-09-09T05:22:24;9.55;;;6.53;;
11951;SDS011;6036;41.840;23.486;2022-09-09T05:24:49;10.80;;;6.63;;
11951;SDS011;6036;41.840;23.486;2022-09-09T05:27:18;10.93;;;7.90;;
11951;SDS011;6036;41.840;23.486;2022-09-09T05:29:44;15.25;;;11.00;;
11951;SDS011;6036;41.840;23.486;2022-09-09T05:32:11;15.00;;;10.85;;
11951;SDS011;6036;41.840;23.486;2022-09-09T05:34:36;19.60;;;12.20;;
11951;SDS011;6036;41.840;23.486;2022-09-09T05:37:05;21.60;;;13.23;;
11951;SDS011;6036;41.840;23.486;2022-09-09T05:39:32;14.40;;;10.25;;
11951;SDS011;6036;41.840;23.486;2022-09-09T05:41:58;11.82;;;6.55;;
11951;SDS011;6036;41.840;23.486;2022-09-09T05:44:24;12.15;;;8.13;;
11951;SDS011;6036;41.840;23.486;2022-09-09T05:46:52;14.48;;;8.02;;
11951;SDS011;6036;41.840;23.486;2022-09-09T05:49:19;13.38;;;8.77;;
11951;SDS011;6036;41.840;23.486;2022-09-09T05:51:45;11.88;;;7.90;;
11951;SDS011;6036;41.840;23.486;2022-09-09T05:54:10;11.60;;;8.32;;
11951;SDS011;6036;41.840;23.486;2022-09-09T05:56:39;17.40;;;10.03;;
11951;SDS011;6036;41.840;23.486;2022-09-09T05:59:05;15.90;;;11.25;;
11951;SDS011;6036;41.840;23.486;2022-09-09T06:01:32;24.65;;;12.55;;
11951;SDS011;6036;41.840;23.486;2022-09-09T06:03:59;14.77;;;11.52;;
11951;SDS011;6036;41.840;23.486;2022-09-09T06:06:25;22.50;;;12.98;;
11951;SDS011;6036;41.840;23.486;2022-09-09T06:08:53;19.15;;;13.05;;
11951;SDS011;6036;41.840;23.486;2022-09-09T06:11:20;23.27;;;14.43;;
11951;SDS011;6036;41.840;23.486;2022-09-09T06:13:48;20.70;;;14.30;;
11951;SDS011;6036;41.840;23.486;2022-09-09T06:16:18;18.60;;;13.10;;
11951;SDS011;6036;41.840;23.486;2022-09-09T06:18:45;13.32;;;10.68;;
11951;SDS011;6036;41.840;23.486;2022-09-09T06:21:15;13.52;;;10.98;;
11951;SDS011;6036;41.840;23.486;2022-09-09T06:23:45;13.05;;;10.18;;
11951;SDS011;6036;41.840;23.486;2022-09-09T06:26:22;12.05;;;9.82;;
11951;SDS011;6036;41.840;23.486;2022-09-09T06:28:50;13.05;;;10.23;;
11951;SDS011;6036;41.840;23.486;2022-09-09T06:31:18;12.13;;;9.05;;
11951;SDS011;6036;41.840;23.486;2022-09-09T06:33:51;12.63;;;10.20;;
11951;SDS011;6036;41.840;23.486;2022-09-09T06:36:29;12.32;;;10.10;;
11951;SDS011;6036;41.840;23.486;2022-09-09T06:38:56;12.27;;;8.93;;
11951;SDS011;6036;41.840;23.486;2022-09-09T06:41:23;8.20;;;6.97;;
11951;SDS011;6036;41.840;23.486;2022-09-09T06:43:51;8.63;;;7.00;;
11951;SDS011;6036;41.840;23.486;2022-09-09T06:48:44;8.80;;;7.00;;
11951;SDS011;6036;41.840;23.486;2022-09-09T06:51:11;11.40;;;9.05;;
11951;SDS011;6036;41.840;23.486;2022-09-09T06:53:38;10.10;;;8.43;;
11951;SDS011;6036;41.840;23.486;2022-09-09T06:58:39;11.02;;;8.68;;
11951;SDS011;6036;41.840;23.486;2022-09-09T07:01:12;9.38;;;7.85;;
11951;SDS011;6036;41.840;23.486;2022-09-09T07:03:39;8.70;;;7.55;;
11951;SDS011;6036;41.840;23.486;2022-09-09T07:06:06;10.30;;;7.85;;
11951;SDS011;6036;41.840;23.486;2022-09-09T07:08:32;9.15;;;8.20;;
11951;SDS011;6036;41.840;23.486;2022-09-09T07:11:05;11.30;;;7.90;;
11951;SDS011;6036;41.840;23.486;2022-09-09T07:13:32;13.00;;;7.43;;
11951;SDS011;6036;41.840;23.486;2022-09-09T07:16:07;8.48;;;7.55;;
11951;SDS011;6036;41.840;23.486;2022-09-09T07:18:34;8.43;;;7.03;;
11951;SDS011;6036;41.840;23.486;2022-09-09T07:30:45;5.75;;;4.60;;
11951;SDS011;6036;41.840;23.486;2022-09-09T07:35:46;6.25;;;5.15;;
11951;SDS011;6036;41.840;23.486;2022-09-09T07:38:12;6.55;;;5.55;;
11951;SDS011;6036;41.840;23.486;2022-09-09T07:40:37;8.57;;;6.35;;
11951;SDS011;6036;41.840;23.486;2022-09-09T07:43:03;7.13;;;5.63;;
11951;SDS011;6036;41.840;23.486;2022-09-09T07:45:28;6.30;;;5.18;;
11951;SDS011;6036;41.840;23.486;2022-09-09T07:47:55;23.77;;;5.75;;
11951;SDS011;6036;41.840;23.486;2022-09-09T07:50:22;5.97;;;5.03;;
11951;SDS011;6036;41.840;23.486;2022-09-09T07:52:48;7.43;;;4.82;;
11951;SDS011;6036;41.840;23.486;2022-09-09T07:55:14;7.82;;;5.57;;
11951;SDS011;6036;41.840;23.486;2022-09-09T07:57:40;4.90;;;4.28;;
11951;SDS011;6036;41.840;23.486;2022-09-09T08:00:05;6.13;;;4.65;;
11951;SDS011;6036;41.840;23.486;2022-09-09T08:02:31;4.90;;;4.25;;
11951;SDS011;6036;41.840;23.486;2022-09-09T08:04:56;5.07;;;4.10;;
11951;SDS011;6036;41.840;23.486;2022-09-09T08:07:22;4.65;;;3.88;;
11951;SDS011;6036;41.840;23.486;2022-09-09T08:09:48;4.68;;;4.00;;
11951;SDS011;6036;41.840;23.486;2022-09-09T08:12:14;5.15;;;3.80;;
11951;SDS011;6036;41.840;23.486;2022-09-09T08:14:41;4.03;;;3.53;;
11951;SDS011;6036;41.840;23.486;2022-09-09T08:17:06;4.57;;;4.00;;
11951;SDS011;6036;41.840;23.486;2022-09-09T08:19:32;7.68;;;4.53;;
11951;SDS011;6036;41.840;23.486;2022-09-09T08:22:01;5.00;;;4.05;;
11951;SDS011;6036;41.840;23.486;2022-09-09T08:24:27;9.45;;;4.53;;
11951;SDS011;6036;41.840;23.486;2022-09-09T08:26:53;5.07;;;3.72;;
11951;SDS011;6036;41.840;23.486;2022-09-09T08:29:19;4.63;;;4.22;;
11951;SDS011;6036;41.840;23.486;2022-09-09T08:31:48;9.70;;;4.40;;
11951;SDS011;6036;41.840;23.486;2022-09-09T08:34:16;7.05;;;4.60;;
11951;SDS011;6036;41.840;23.486;2022-09-09T08:36:45;6.13;;;4.93;;
11951;SDS011;6036;41.840;23.486;2022-09-09T08:39:13;7.15;;;4.50;;
11951;SDS011;6036;41.840;23.486;2022-09-09T08:57:40;5.35;;;4.63;;
11951;SDS011;6036;41.840;23.486;2022-09-09T09:00:09;6.22;;;4.50;;
11951;SDS011;6036;41.840;23.486;2022-09-09T09:03:13;10.80;;;5.30;;
11951;SDS011;6036;41.840;23.486;2022-09-09T09:05:50;8.38;;;5.68;;
11951;SDS011;6036;41.840;23.486;2022-09-09T09:10:46;5.75;;;4.95;;
11951;SDS011;6036;41.840;23.486;2022-09-09T09:13:20;6.97;;;4.18;;
11951;SDS011;6036;41.840;23.486;2022-09-09T09:15:53;7.93;;;5.10;;
11951;SDS011;6036;41.840;23.486;2022-09-09T09:18:25;5.57;;;4.88;;
11951;SDS011;6036;41.840;23.486;2022-09-09T09:21:05;9.13;;;5.20;;
11951;SDS011;6036;41.840;23.486;2022-09-09T09:23:54;8.90;;;5.03;;
11951;SDS011;6036;41.840;23.486;2022-09-09T09:26:23;5.47;;;4.95;;
11951;SDS011;6036;41.840;23.486;2022-09-09T09:28:55;9.55;;;5.35;;
11951;SDS011;6036;41.840;23.486;2022-09-09T09:31:22;13.45;;;5.38;;
11951;SDS011;6036;41.840;23.486;2022-09-09T09:33:52;6.20;;;5.65;;
11951;SDS011;6036;41.840;23.486;2022-09-09T09:36:20;6.40;;;5.15;;
11951;SDS011;6036;41.840;23.486;2022-09-09T09:38:53;8.70;;;5.45;;
11951;SDS011;6036;41.840;23.486;2022-09-09T09:44:03;5.80;;;5.20;;
11951;SDS011;6036;41.840;23.486;2022-09-09T09:46:30;5.63;;;4.97;;
11951;SDS011;6036;41.840;23.486;2022-09-09T09:49:08;6.40;;;4.93;;
11951;SDS011;6036;41.840;23.486;2022-09-09T09:51:35;6.57;;;5.45;;
11951;SDS011;6036;41.840;23.486;2022-09-09T09:56:39;6.53;;;5.93;;
11951;SDS011;6036;41.840;23.486;2022-09-09T09:59:11;6.55;;;5.78;;
11951;SDS011;6036;41.840;23.486;2022-09-09T10:01:46;7.00;;;5.00;;
11951;SDS011;6036;41.840;23.486;2022-09-09T10:04:16;7.05;;;5.13;;
11951;SDS011;6036;41.840;23.486;2022-09-09T10:06:48;7.30;;;5.22;;
11951;SDS011;6036;41.840;23.486;2022-09-09T10:14:19;7.05;;;5.43;;
11951;SDS011;6036;41.840;23.486;2022-09-09T10:30:46;6.00;;;5.03;;
11951;SDS011;6036;41.840;23.486;2022-09-09T10:33:20;5.90;;;4.95;;
11951;SDS011;6036;41.840;23.486;2022-09-09T10:38:52;6.63;;;4.75;;
11951;SDS011;6036;41.840;23.486;2022-09-09T10:44:32;5.60;;;5.10;;
11951;SDS011;6036;41.840;23.486;2022-09-09T10:53:16;6.57;;;4.50;;
11951;SDS011;6036;41.840;23.486;2022-09-09T10:55:53;5.53;;;4.40;;
11951;SDS011;6036;41.840;23.486;2022-09-09T11:00:54;6.03;;;4.38;;
11951;SDS011;6036;41.840;23.486;2022-09-09T11:03:27;8.07;;;4.40;;
11951;SDS011;6036;41.840;23.486;2022-09-09T11:08:38;5.10;;;4.00;;
11951;SDS011;6036;41.840;23.486;2022-09-09T11:18:44;4.00;;;3.60;;
11951;SDS011;6036;41.840;23.486;2022-09-09T11:21:45;5.82;;;4.10;;
11951;SDS011;6036;41.840;23.486;2022-09-09T11:27:22;5.93;;;3.72;;
11951;SDS011;6036;41.840;23.486;2022-09-09T11:35:42;5.82;;;4.15;;
11951;SDS011;6036;41.840;23.486;2022-09-09T11:41:16;5.18;;;3.45;;
11951;SDS011;6036;41.840;23.486;2022-09-09T11:43:43;6.35;;;3.85;;
11951;SDS011;6036;41.840;23.486;2022-09-09T11:46:12;6.60;;;3.78;;
11951;SDS011;6036;41.840;23.486;2022-09-09T11:48:43;5.78;;;3.50;;
11951;SDS011;6036;41.840;23.486;2022-09-09T11:51:27;4.32;;;3.72;;
11951;SDS011;6036;41.840;23.486;2022-09-09T11:53:55;3.53;;;3.10;;
11951;SDS011;6036;41.840;23.486;2022-09-09T11:59:03;5.68;;;3.28;;
11951;SDS011;6036;41.840;23.486;2022-09-09T12:01:34;5.47;;;3.30;;
11951;SDS011;6036;41.840;23.486;2022-09-09T12:04:12;4.90;;;2.95;;
11951;SDS011;6036;41.840;23.486;2022-09-09T12:19:41;5.05;;;2.50;;
11951;SDS011;6036;41.840;23.486;2022-09-09T12:22:20;6.15;;;3.33;;
11951;SDS011;6036;41.840;23.486;2022-09-09T12:30:16;4.85;;;3.63;;
11951;SDS011;6036;41.840;23.486;2022-09-09T12:32:42;10.10;;;4.18;;
11951;SDS011;6036;41.840;23.486;2022-09-09T12:37:38;7.05;;;3.63;;
11951;SDS011;6036;41.840;23.486;2022-09-09T12:40:21;4.10;;;3.67;;
11951;SDS011;6036;41.840;23.486;2022-09-09T12:42:49;5.70;;;3.60;;
11951;SDS011;6036;41.840;23.486;2022-09-09T12:45:25;6.55;;;3.80;;
11951;SDS011;6036;41.840;23.486;2022-09-09T12:47:54;8.63;;;4.07;;
11951;SDS011;6036;41.840;23.486;2022-09-09T12:50:25;5.30;;;4.22;;
11951;SDS011;6036;41.840;23.486;2022-09-09T12:52:53;4.97;;;4.22;;
11951;SDS011;6036;41.840;23.486;2022-09-09T12:55:30;6.13;;;4.10;;
11951;SDS011;6036;41.840;23.486;2022-09-09T12:57:58;5.63;;;4.28;;
11951;SDS011;6036;41.840;23.486;2022-09-09T13:00:29;6.55;;;4.40;;
11951;SDS011;6036;41.840;23.486;2022-09-09T13:02:56;5.30;;;3.92;;
11951;SDS011;6036;41.840;23.486;2022-09-09T13:05:27;4.35;;;3.95;;
11951;SDS011;6036;41.840;23.486;2022-09-09T13:08:10;5.35;;;3.95;;
11951;SDS011;6036;41.840;23.486;2022-09-09T13:10:47;6.50;;;4.13;;
11951;SDS011;6036;41.840;23.486;2022-09-09T13:13:14;6.43;;;4.10;;
11951;SDS011;6036;41.840;23.486;2022-09-09T13:15:48;5.07;;;3.35;;
11951;SDS011;6036;41.840;23.486;2022-09-09T13:18:26;6.68;;;4.13;;
11951;SDS011;6036;41.840;23.486;2022-09-09T13:20:54;6.10;;;3.80;;
11951;SDS011;6036;41.840;23.486;2022-09-09T13:23:23;5.78;;;3.63;;
11951;SDS011;6036;41.840;23.486;2022-09-09T13:25:55;9.38;;;3.80;;
11951;SDS011;6036;41.840;23.486;2022-09-09T13:28:23;7.40;;;3.70;;
11951;SDS011;6036;41.840;23.486;2022-09-09T13:30:57;5.45;;;3.42;;
11951;SDS011;6036;41.840;23.486;2022-09-09T13:33:30;4.35;;;2.95;;
11951;SDS011;6036;41.840;23.486;2022-09-09T13:35:59;4.20;;;2.78;;
11951;SDS011;6036;41.840;23.486;2022-09-09T13:38:35;4.47;;;2.70;;
11951;SDS011;6036;41.840;23.486;2022-09-09T13:41:22;4.95;;;2.90;;
11951;SDS011;6036;41.840;23.486;2022-09-09T13:43:50;4.57;;;2.97;;
11951;SDS011;6036;41.840;23.486;2022-09-09T13:46:25;4.65;;;3.03;;
11951;SDS011;6036;41.840;23.486;2022-09-09T13:49:02;4.40;;;3.22;;
11951;SDS011;6036;41.840;23.486;2022-09-09T13:51:40;5.85;;;3.08;;
11951;SDS011;6036;41.840;23.486;2022-09-09T13:54:10;6.47;;;3.67;;
11951;SDS011;6036;41.840;23.486;2022-09-09T13:56:39;7.05;;;3.42;;
11951;SDS011;6036;41.840;23.486;2022-09-09T13:59:06;5.55;;;3.50;;
11951;SDS011;6036;41.840;23.486;2022-09-09T14:01:36;5.95;;;3.13;;
11951;SDS011;6036;41.840;23.486;2022-09-09T14:04:02;5.45;;;3.47;;
11951;SDS011;6036;41.840;23.486;2022-09-09T14:06:28;5.53;;;3.90;;
11951;SDS011;6036;41.840;23.486;2022-09-09T14:08:54;3.80;;;3.35;;
11951;SDS011;6036;41.840;23.486;2022-09-09T14:11:20;8.77;;;4.50;;
11951;SDS011;6036;41.840;23.486;2022-09-09T14:13:47;6.13;;;3.35;;
11951;SDS011;6036;41.840;23.486;2022-09-09T14:16:18;5.32;;;3.65;;
11951;SDS011;6036;41.840;23.486;2022-09-09T14:18:44;6.75;;;3.60;;
11951;SDS011;6036;41.840;23.486;2022-09-09T14:21:11;4.78;;;3.67;;
11951;SDS011;6036;41.840;23.486;2022-09-09T14:23:36;5.75;;;3.80;;
11951;SDS011;6036;41.840;23.486;2022-09-09T14:26:03;7.22;;;4.32;;
11951;SDS011;6036;41.840;23.486;2022-09-09T14:28:29;4.18;;;3.78;;
11951;SDS011;6036;41.840;23.486;2022-09-09T14:30:58;5.10;;;3.47;;
11951;SDS011;6036;41.840;23.486;2022-09-09T14:33:25;4.45;;;3.47;;
11951;SDS011;6036;41.840;23.486;2022-09-09T14:35:55;7.40;;;4.03;;
11951;SDS011;6036;41.840;23.486;2022-09-09T14:38:24;7.95;;;4.03;;
11951;SDS011;6036;41.840;23.486;2022-09-09T14:40:50;4.53;;;3.60;;
11951;SDS011;6036;41.840;23.486;2022-09-09T14:43:16;5.70;;;3.65;;
11951;SDS011;6036;41.840;23.486;2022-09-09T14:45:41;5.07;;;4.25;;
11951;SDS011;6036;41.840;23.486;2022-09-09T14:48:08;4.78;;;3.70;;
11951;SDS011;6036;41.840;23.486;2022-09-09T14:50:33;4.70;;;3.80;;
11951;SDS011;6036;41.840;23.486;2022-09-09T14:53:01;7.03;;;3.90;;
11951;SDS011;6036;41.840;23.486;2022-09-09T14:55:27;6.40;;;4.33;;
11951;SDS011;6036;41.840;23.486;2022-09-09T14:57:54;5.07;;;3.80;;
11951;SDS011;6036;41.840;23.486;2022-09-09T15:00:19;6.40;;;4.30;;
11951;SDS011;6036;41.840;23.486;2022-09-09T15:02:45;6.25;;;4.05;;
11951;SDS011;6036;41.840;23.486;2022-09-09T15:05:10;7.13;;;3.92;;
11951;SDS011;6036;41.840;23.486;2022-09-09T15:07:36;4.25;;;3.60;;
11951;SDS011;6036;41.840;23.486;2022-09-09T15:10:02;8.87;;;5.10;;
11951;SDS011;6036;41.840;23.486;2022-09-09T15:12:28;14.07;;;7.28;;
11951;SDS011;6036;41.840;23.486;2022-09-09T15:14:53;11.40;;;6.60;;
11951;SDS011;6036;41.840;23.486;2022-09-09T15:17:19;10.10;;;5.45;;
11951;SDS011;6036;41.840;23.486;2022-09-09T15:19:45;7.73;;;4.20;;
11951;SDS011;6036;41.840;23.486;2022-09-09T15:22:11;15.02;;;8.52;;
11951;SDS011;6036;41.840;23.486;2022-09-09T15:24:36;11.13;;;6.00;;
11951;SDS011;6036;41.840;23.486;2022-09-09T15:27:02;6.90;;;4.63;;
11951;SDS011;6036;41.840;23.486;2022-09-09T15:29:27;5.68;;;3.80;;
11951;SDS011;6036;41.840;23.486;2022-09-09T15:31:53;9.57;;;5.33;;
11951;SDS011;6036;41.840;23.486;2022-09-09T15:34:19;6.88;;;4.07;;
11951;SDS011;6036;41.840;23.486;2022-09-09T15:36:45;8.47;;;4.70;;
11951;SDS011;6036;41.840;23.486;2022-09-09T15:39:15;5.80;;;4.10;;
11951;SDS011;6036;41.840;23.486;2022-09-09T15:41:45;6.68;;;3.80;;
11951;SDS011;6036;41.840;23.486;2022-09-09T15:44:12;5.10;;;3.77;;
11951;SDS011;6036;41.840;23.486;2022-09-09T15:46:52;4.68;;;3.40;;
11951;SDS011;6036;41.840;23.486;2022-09-09T15:49:21;6.83;;;4.20;;
11951;SDS011;6036;41.840;23.486;2022-09-09T15:51:54;6.28;;;4.30;;
11951;SDS011;6036;41.840;23.486;2022-09-09T15:54:23;8.25;;;4.57;;
11951;SDS011;6036;41.840;23.486;2022-09-09T15:56:51;5.82;;;4.38;;
11951;SDS011;6036;41.840;23.486;2022-09-09T15:59:20;7.50;;;4.80;;
11951;SDS011;6036;41.840;23.486;2022-09-09T16:01:46;5.78;;;4.15;;
11951;SDS011;6036;41.840;23.486;2022-09-09T16:04:11;5.55;;;4.30;;
11951;SDS011;6036;41.840;23.486;2022-09-09T16:06:37;5.90;;;4.50;;
11951;SDS011;6036;41.840;23.486;2022-09-09T16:09:04;7.88;;;4.38;;
11951;SDS011;6036;41.840;23.486;2022-09-09T16:11:31;5.90;;;4.28;;
11951;SDS011;6036;41.840;23.486;2022-09-09T16:13:59;5.20;;;4.03;;
11951;SDS011;6036;41.840;23.486;2022-09-09T16:16:26;5.40;;;4.23;;
11951;SDS011;6036;41.840;23.486;2022-09-09T16:18:54;6.25;;;3.88;;
11951;SDS011;6036;41.840;23.486;2022-09-09T16:21:27;5.75;;;3.90;;
11951;SDS011;6036;41.840;23.486;2022-09-09T16:23:55;6.85;;;4.53;;
11951;SDS011;6036;41.840;23.486;2022-09-09T16:26:22;7.40;;;4.00;;
11951;SDS011;6036;41.840;23.486;2022-09-09T16:28:48;7.15;;;4.70;;
11951;SDS011;6036;41.840;23.486;2022-09-09T16:31:15;6.85;;;4.13;;
11951;SDS011;6036;41.840;23.486;2022-09-09T16:33:43;6.30;;;4.13;;
11951;SDS011;6036;41.840;23.486;2022-09-09T16:36:11;10.40;;;4.47;;
11951;SDS011;6036;41.840;23.486;2022-09-09T16:38:39;11.20;;;4.43;;
11951;SDS011;6036;41.840;23.486;2022-09-09T16:41:05;4.22;;;3.65;;
11951;SDS011;6036;41.840;23.486;2022-09-09T16:43:35;6.30;;;3.72;;
11951;SDS011;6036;41.840;23.486;2022-09-09T16:46:02;5.65;;;3.97;;
11951;SDS011;6036;41.840;23.486;2022-09-09T16:48:32;6.85;;;3.92;;
11951;SDS011;6036;41.840;23.486;2022-09-09T16:51:05;6.22;;;4.53;;
11951;SDS011;6036;41.840;23.486;2022-09-09T16:53:32;6.85;;;3.67;;
11951;SDS011;6036;41.840;23.486;2022-09-09T16:55:58;6.35;;;3.97;;
11951;SDS011;6036;41.840;23.486;2022-09-09T16:58:29;5.53;;;3.92;;
11951;SDS011;6036;41.840;23.486;2022-09-09T17:00:58;8.80;;;4.90;;
11951;SDS011;6036;41.840;23.486;2022-09-09T17:03:24;8.73;;;4.60;;
11951;SDS011;6036;41.840;23.486;2022-09-09T17:05:50;10.15;;;4.75;;
11951;SDS011;6036;41.840;23.486;2022-09-09T17:08:15;9.38;;;5.10;;
11951;SDS011;6036;41.840;23.486;2022-09-09T17:10:41;6.60;;;3.97;;
11951;SDS011;6036;41.840;23.486;2022-09-09T17:13:07;10.38;;;4.50;;
11951;SDS011;6036;41.840;23.486;2022-09-09T17:15:33;6.20;;;3.75;;
11951;SDS011;6036;41.840;23.486;2022-09-09T17:17:59;9.32;;;3.70;;
11951;SDS011;6036;41.840;23.486;2022-09-09T17:20:25;7.68;;;3.70;;
11951;SDS011;6036;41.840;23.486;2022-09-09T17:22:50;8.18;;;3.40;;
11951;SDS011;6036;41.840;23.486;2022-09-09T17:25:16;7.93;;;4.70;;
11951;SDS011;6036;41.840;23.486;2022-09-09T17:27:42;9.70;;;3.60;;
11951;SDS011;6036;41.840;23.486;2022-09-09T17:30:08;6.68;;;3.90;;
11951;SDS011;6036;41.840;23.486;2022-09-09T17:32:34;9.45;;;3.60;;
11951;SDS011;6036;41.840;23.486;2022-09-09T17:35:00;10.20;;;4.28;;
11951;SDS011;6036;41.840;23.486;2022-09-09T17:37:26;13.52;;;3.97;;
11951;SDS011;6036;41.840;23.486;2022-09-09T17:39:52;9.05;;;4.15;;
11951;SDS011;6036;41.840;23.486;2022-09-09T17:42:17;8.30;;;3.80;;
11951;SDS011;6036;41.840;23.486;2022-09-09T17:44:43;5.35;;;3.42;;
11951;SDS011;6036;41.840;23.486;2022-09-09T17:47:08;9.73;;;3.53;;
11951;SDS011;6036;41.840;23.486;2022-09-09T17:49:33;10.05;;;3.72;;